sensor_id;sensor_type;location;lat;lon;timestamp;temperature;humidity
28773;DHT22;15925;51.222;5.678;2022-10-20T00:01:19;12.70;99.90
28773;DHT22;15925;51.222;5.678;2022-10-20T00:03:48;12.70;99.90
28773;DHT22;15925;51.222;5.678;2022-10-20T00:06:20;12.70;99.90
28773;DHT22;15925;51.222;5.678;2022-10-20T00:08:47;12.70;99.90
28773;DHT22;15925;51.222;5.678;2022-10-20T00:11:15;12.70;99.90
28773;DHT22;15925;51.222;5.678;2022-10-20T00:13:44;12.70;99.90
28773;DHT22;15925;51.222;5.678;2022-10-20T00:16:10;12.60;99.90
28773;DHT22;15925;51.222;5.678;2022-10-20T00:18:37;12.70;99.90
28773;DHT22;15925;51.222;5.678;2022-10-20T00:21:08;12.60;99.90
28773;DHT22;15925;51.222;5.678;2022-10-20T00:23:35;12.60;99.90
28773;DHT22;15925;51.222;5.678;2022-10-20T00:26:06;12.70;99.90
28773;DHT22;15925;51.222;5.678;2022-10-20T00:28:33;12.70;99.90
28773;DHT22;15925;51.222;5.678;2022-10-20T00:30:59;12.60;99.90
28773;DHT22;15925;51.222;5.678;2022-10-20T00:33:25;12.60;99.90
28773;DHT22;15925;51.222;5.678;2022-10-20T00:35:51;12.60;99.90
28773;DHT22;15925;51.222;5.678;2022-10-20T00:38:17;12.60;99.90
28773;DHT22;15925;51.222;5.678;2022-10-20T00:40:43;12.60;99.90
28773;DHT22;15925;51.222;5.678;2022-10-20T00:43:12;12.60;99.90
28773;DHT22;15925;51.222;5.678;2022-10-20T00:45:38;12.60;99.90
28773;DHT22;15925;51.222;5.678;2022-10-20T00:48:05;12.60;99.90
28773;DHT22;15925;51.222;5.678;2022-10-20T00:50:39;12.50;99.90
28773;DHT22;15925;51.222;5.678;2022-10-20T00:53:06;12.50;99.90
28773;DHT22;15925;51.222;5.678;2022-10-20T00:55:35;12.50;99.90
28773;DHT22;15925;51.222;5.678;2022-10-20T00:58:02;12.50;99.90
28773;DHT22;15925;51.222;5.678;2022-10-20T01:00:28;12.50;99.90
28773;DHT22;15925;51.222;5.678;2022-10-20T01:02:58;12.50;99.90
28773;DHT22;15925;51.222;5.678;2022-10-20T01:05:26;12.50;99.90
28773;DHT22;15925;51.222;5.678;2022-10-20T01:07:52;12.50;99.90
28773;DHT22;15925;51.222;5.678;2022-10-20T01:10:18;12.50;99.90
28773;DHT22;15925;51.222;5.678;2022-10-20T01:16:07;12.50;99.90
28773;DHT22;15925;51.222;5.678;2022-10-20T01:18:42;12.40;99.90
28773;DHT22;15925;51.222;5.678;2022-10-20T01:21:37;12.40;99.90
28773;DHT22;15925;51.222;5.678;2022-10-20T01:29:56;12.40;99.90
28773;DHT22;15925;51.222;5.678;2022-10-20T01:35:14;12.40;99.90
28773;DHT22;15925;51.222;5.678;2022-10-20T01:37:45;12.40;99.90
28773;DHT22;15925;51.222;5.678;2022-10-20T01:40:26;12.40;99.90
28773;DHT22;15925;51.222;5.678;2022-10-20T01:42:57;12.40;99.90
28773;DHT22;15925;51.222;5.678;2022-10-20T01:45:26;12.50;99.90
28773;DHT22;15925;51.222;5.678;2022-10-20T01:47:53;12.40;99.90
28773;DHT22;15925;51.222;5.678;2022-10-20T01:50:20;12.40;99.90
28773;DHT22;15925;51.222;5.678;2022-10-20T01:52:46;12.40;99.90
28773;DHT22;15925;51.222;5.678;2022-10-20T01:55:14;12.40;99.90
28773;DHT22;15925;51.222;5.678;2022-10-20T02:00:30;12.40;99.90
28773;DHT22;15925;51.222;5.678;2022-10-20T02:03:33;12.50;99.90
28773;DHT22;15925;51.222;5.678;2022-10-20T02:06:24;12.40;99.90
28773;DHT22;15925;51.222;5.678;2022-10-20T02:08:56;12.40;99.90
28773;DHT22;15925;51.222;5.678;2022-10-20T02:14:04;12.50;99.90
28773;DHT22;15925;51.222;5.678;2022-10-20T02:16:37;12.50;99.90
28773;DHT22;15925;51.222;5.678;2022-10-20T02:19:05;12.50;99.90
28773;DHT22;15925;51.222;5.678;2022-10-20T02:21:32;12.50;99.90
28773;DHT22;15925;51.222;5.678;2022-10-20T02:23:58;12.40;99.90
28773;DHT22;15925;51.222;5.678;2022-10-20T02:26:28;12.40;99.90
28773;DHT22;15925;51.222;5.678;2022-10-20T02:29:00;12.40;99.90
28773;DHT22;15925;51.222;5.678;2022-10-20T02:31:28;12.40;99.90
28773;DHT22;15925;51.222;5.678;2022-10-20T02:33:55;12.40;99.90
28773;DHT22;15925;51.222;5.678;2022-10-20T02:36:25;12.40;99.90
28773;DHT22;15925;51.222;5.678;2022-10-20T02:38:52;12.40;99.90
28773;DHT22;15925;51.222;5.678;2022-10-20T02:41:18;12.40;99.90
28773;DHT22;15925;51.222;5.678;2022-10-20T02:43:44;12.40;99.90
28773;DHT22;15925;51.222;5.678;2022-10-20T02:46:10;12.40;99.90
28773;DHT22;15925;51.222;5.678;2022-10-20T02:48:35;12.30;99.90
28773;DHT22;15925;51.222;5.678;2022-10-20T02:51:03;12.40;99.90
28773;DHT22;15925;51.222;5.678;2022-10-20T02:53:30;12.40;99.90
28773;DHT22;15925;51.222;5.678;2022-10-20T02:55:56;12.40;99.90
28773;DHT22;15925;51.222;5.678;2022-10-20T02:58:23;12.40;99.90
28773;DHT22;15925;51.222;5.678;2022-10-20T03:00:50;12.40;99.90
28773;DHT22;15925;51.222;5.678;2022-10-20T03:03:19;12.40;99.90
28773;DHT22;15925;51.222;5.678;2022-10-20T03:05:45;12.40;99.90
28773;DHT22;15925;51.222;5.678;2022-10-20T03:08:13;12.40;99.90
28773;DHT22;15925;51.222;5.678;2022-10-20T03:10:38;12.40;99.90
28773;DHT22;15925;51.222;5.678;2022-10-20T03:13:06;12.40;99.90
28773;DHT22;15925;51.222;5.678;2022-10-20T03:15:32;12.40;99.90
28773;DHT22;15925;51.222;5.678;2022-10-20T03:17:58;12.40;99.90
28773;DHT22;15925;51.222;5.678;2022-10-20T03:20:24;12.40;99.90
28773;DHT22;15925;51.222;5.678;2022-10-20T03:22:50;12.40;99.90
28773;DHT22;15925;51.222;5.678;2022-10-20T03:25:16;12.40;99.90
28773;DHT22;15925;51.222;5.678;2022-10-20T03:27:41;12.40;99.90
28773;DHT22;15925;51.222;5.678;2022-10-20T03:30:07;12.40;99.90
28773;DHT22;15925;51.222;5.678;2022-10-20T03:32:33;12.40;99.90
28773;DHT22;15925;51.222;5.678;2022-10-20T03:34:59;12.30;99.90
28773;DHT22;15925;51.222;5.678;2022-10-20T03:37:25;12.40;99.90
28773;DHT22;15925;51.222;5.678;2022-10-20T03:39:50;12.40;99.90
28773;DHT22;15925;51.222;5.678;2022-10-20T03:42:16;12.40;99.90
28773;DHT22;15925;51.222;5.678;2022-10-20T03:44:42;12.40;99.90
28773;DHT22;15925;51.222;5.678;2022-10-20T03:47:12;12.50;99.90
28773;DHT22;15925;51.222;5.678;2022-10-20T03:49:38;12.50;99.90
28773;DHT22;15925;51.222;5.678;2022-10-20T03:52:04;12.50;99.90
28773;DHT22;15925;51.222;5.678;2022-10-20T03:54:30;12.50;99.90
28773;DHT22;15925;51.222;5.678;2022-10-20T03:56:56;12.50;99.90
28773;DHT22;15925;51.222;5.678;2022-10-20T03:59:22;12.50;99.90
28773;DHT22;15925;51.222;5.678;2022-10-20T04:01:48;12.50;99.90
28773;DHT22;15925;51.222;5.678;2022-10-20T04:04:14;12.50;99.90
28773;DHT22;15925;51.222;5.678;2022-10-20T04:06:40;12.50;99.90
28773;DHT22;15925;51.222;5.678;2022-10-20T04:09:05;12.50;99.90
28773;DHT22;15925;51.222;5.678;2022-10-20T04:11:31;12.50;99.90
28773;DHT22;15925;51.222;5.678;2022-10-20T04:13:57;12.60;99.90
28773;DHT22;15925;51.222;5.678;2022-10-20T04:16:23;12.50;99.90
28773;DHT22;15925;51.222;5.678;2022-10-20T04:18:54;12.50;99.90
28773;DHT22;15925;51.222;5.678;2022-10-20T04:21:20;12.50;99.90
28773;DHT22;15925;51.222;5.678;2022-10-20T04:23:46;12.50;99.90
28773;DHT22;15925;51.222;5.678;2022-10-20T04:26:14;12.50;99.90
28773;DHT22;15925;51.222;5.678;2022-10-20T04:28:40;12.60;99.90
28773;DHT22;15925;51.222;5.678;2022-10-20T04:31:06;12.50;99.90
28773;DHT22;15925;51.222;5.678;2022-10-20T04:33:32;12.60;99.90
28773;DHT22;15925;51.222;5.678;2022-10-20T04:36:03;12.60;99.90
28773;DHT22;15925;51.222;5.678;2022-10-20T04:38:31;12.60;99.90
28773;DHT22;15925;51.222;5.678;2022-10-20T04:40:58;12.60;99.90
28773;DHT22;15925;51.222;5.678;2022-10-20T04:43:24;12.70;99.90
28773;DHT22;15925;51.222;5.678;2022-10-20T04:45:50;12.70;99.90
28773;DHT22;15925;51.222;5.678;2022-10-20T04:48:18;12.70;99.90
28773;DHT22;15925;51.222;5.678;2022-10-20T04:50:44;12.70;99.90
28773;DHT22;15925;51.222;5.678;2022-10-20T04:53:10;12.70;99.90
28773;DHT22;15925;51.222;5.678;2022-10-20T04:55:36;12.70;99.90
28773;DHT22;15925;51.222;5.678;2022-10-20T04:58:02;12.70;99.90
28773;DHT22;15925;51.222;5.678;2022-10-20T05:00:28;12.70;99.90
28773;DHT22;15925;51.222;5.678;2022-10-20T05:02:54;12.70;99.90
28773;DHT22;15925;51.222;5.678;2022-10-20T05:05:20;12.70;99.90
28773;DHT22;15925;51.222;5.678;2022-10-20T05:07:46;12.80;99.90
28773;DHT22;15925;51.222;5.678;2022-10-20T05:10:12;12.70;99.90
28773;DHT22;15925;51.222;5.678;2022-10-20T05:12:37;12.80;99.90
28773;DHT22;15925;51.222;5.678;2022-10-20T05:15:03;12.80;99.90
28773;DHT22;15925;51.222;5.678;2022-10-20T05:17:29;12.80;99.90
28773;DHT22;15925;51.222;5.678;2022-10-20T05:19:55;12.80;99.90
28773;DHT22;15925;51.222;5.678;2022-10-20T05:22:21;12.90;99.90
28773;DHT22;15925;51.222;5.678;2022-10-20T05:24:47;12.90;99.90
28773;DHT22;15925;51.222;5.678;2022-10-20T05:27:13;12.90;99.90
28773;DHT22;15925;51.222;5.678;2022-10-20T05:29:38;12.90;99.90
28773;DHT22;15925;51.222;5.678;2022-10-20T05:32:04;12.90;99.90
28773;DHT22;15925;51.222;5.678;2022-10-20T05:34:30;12.90;99.90
28773;DHT22;15925;51.222;5.678;2022-10-20T05:36:56;12.80;99.90
28773;DHT22;15925;51.222;5.678;2022-10-20T05:39:22;12.90;99.90
28773;DHT22;15925;51.222;5.678;2022-10-20T05:41:47;12.90;99.90
28773;DHT22;15925;51.222;5.678;2022-10-20T05:44:13;12.90;99.90
28773;DHT22;15925;51.222;5.678;2022-10-20T05:46:39;12.90;99.90
28773;DHT22;15925;51.222;5.678;2022-10-20T05:49:13;12.80;99.90
28773;DHT22;15925;51.222;5.678;2022-10-20T05:51:40;12.90;99.90
28773;DHT22;15925;51.222;5.678;2022-10-20T05:54:06;12.80;99.90
28773;DHT22;15925;51.222;5.678;2022-10-20T05:56:32;12.80;99.90
28773;DHT22;15925;51.222;5.678;2022-10-20T05:58:58;12.80;99.90
28773;DHT22;15925;51.222;5.678;2022-10-20T06:01:27;12.80;99.90
28773;DHT22;15925;51.222;5.678;2022-10-20T06:04:03;12.80;99.90
28773;DHT22;15925;51.222;5.678;2022-10-20T06:06:30;12.80;99.90
28773;DHT22;15925;51.222;5.678;2022-10-20T06:08:57;12.80;99.90
28773;DHT22;15925;51.222;5.678;2022-10-20T06:11:24;12.80;99.90
28773;DHT22;15925;51.222;5.678;2022-10-20T06:13:50;12.80;99.90
28773;DHT22;15925;51.222;5.678;2022-10-20T06:16:18;12.80;99.90
28773;DHT22;15925;51.222;5.678;2022-10-20T06:18:45;12.70;99.90
28773;DHT22;15925;51.222;5.678;2022-10-20T06:21:19;12.80;99.90
28773;DHT22;15925;51.222;5.678;2022-10-20T06:23:45;12.80;99.90
28773;DHT22;15925;51.222;5.678;2022-10-20T06:26:15;12.80;99.90
28773;DHT22;15925;51.222;5.678;2022-10-20T06:28:47;12.80;99.90
28773;DHT22;15925;51.222;5.678;2022-10-20T06:31:18;12.90;99.90
28773;DHT22;15925;51.222;5.678;2022-10-20T06:33:45;12.90;99.90
28773;DHT22;15925;51.222;5.678;2022-10-20T06:36:12;12.80;99.90
28773;DHT22;15925;51.222;5.678;2022-10-20T06:38:38;12.80;99.90
28773;DHT22;15925;51.222;5.678;2022-10-20T06:41:06;12.80;99.90
28773;DHT22;15925;51.222;5.678;2022-10-20T06:43:32;12.80;99.90
28773;DHT22;15925;51.222;5.678;2022-10-20T06:46:00;12.80;99.90
28773;DHT22;15925;51.222;5.678;2022-10-20T06:48:28;12.90;99.90
28773;DHT22;15925;51.222;5.678;2022-10-20T06:50:57;12.80;99.90
28773;DHT22;15925;51.222;5.678;2022-10-20T06:53:27;12.80;99.90
28773;DHT22;15925;51.222;5.678;2022-10-20T06:56:00;12.80;99.90
28773;DHT22;15925;51.222;5.678;2022-10-20T06:58:27;12.80;99.90
28773;DHT22;15925;51.222;5.678;2022-10-20T07:01:01;12.80;99.90
28773;DHT22;15925;51.222;5.678;2022-10-20T07:03:28;12.90;99.90
28773;DHT22;15925;51.222;5.678;2022-10-20T07:05:54;12.90;99.90
28773;DHT22;15925;51.222;5.678;2022-10-20T07:08:21;12.90;99.90
28773;DHT22;15925;51.222;5.678;2022-10-20T07:13:29;13.00;99.90
28773;DHT22;15925;51.222;5.678;2022-10-20T07:15:56;13.00;99.90
28773;DHT22;15925;51.222;5.678;2022-10-20T07:18:22;13.00;99.90
28773;DHT22;15925;51.222;5.678;2022-10-20T07:20:48;12.90;99.90
28773;DHT22;15925;51.222;5.678;2022-10-20T07:23:17;13.00;99.90
28773;DHT22;15925;51.222;5.678;2022-10-20T07:25:43;12.90;99.90
28773;DHT22;15925;51.222;5.678;2022-10-20T07:28:09;12.90;99.90
28773;DHT22;15925;51.222;5.678;2022-10-20T07:30:39;12.90;99.90
28773;DHT22;15925;51.222;5.678;2022-10-20T07:33:05;13.00;99.90
28773;DHT22;15925;51.222;5.678;2022-10-20T07:35:31;13.00;99.90
28773;DHT22;15925;51.222;5.678;2022-10-20T07:37:58;13.00;99.90
28773;DHT22;15925;51.222;5.678;2022-10-20T07:40:23;13.00;99.90
28773;DHT22;15925;51.222;5.678;2022-10-20T07:42:49;13.00;99.90
28773;DHT22;15925;51.222;5.678;2022-10-20T07:45:15;13.10;99.90
28773;DHT22;15925;51.222;5.678;2022-10-20T07:47:41;13.10;99.90
28773;DHT22;15925;51.222;5.678;2022-10-20T07:50:07;13.10;99.90
28773;DHT22;15925;51.222;5.678;2022-10-20T07:52:33;13.10;99.90
28773;DHT22;15925;51.222;5.678;2022-10-20T07:54:59;13.10;99.90
28773;DHT22;15925;51.222;5.678;2022-10-20T07:57:25;13.20;99.90
28773;DHT22;15925;51.222;5.678;2022-10-20T07:59:51;13.30;99.90
28773;DHT22;15925;51.222;5.678;2022-10-20T08:02:16;13.20;99.90
28773;DHT22;15925;51.222;5.678;2022-10-20T08:04:42;13.30;99.90
28773;DHT22;15925;51.222;5.678;2022-10-20T08:07:10;13.30;99.90
28773;DHT22;15925;51.222;5.678;2022-10-20T08:09:36;13.40;99.90
28773;DHT22;15925;51.222;5.678;2022-10-20T08:12:03;13.40;99.90
28773;DHT22;15925;51.222;5.678;2022-10-20T08:14:29;13.40;99.90
28773;DHT22;15925;51.222;5.678;2022-10-20T08:17:01;13.40;99.90
28773;DHT22;15925;51.222;5.678;2022-10-20T08:19:28;13.50;99.90
28773;DHT22;15925;51.222;5.678;2022-10-20T08:21:54;13.50;99.90
28773;DHT22;15925;51.222;5.678;2022-10-20T08:24:20;13.60;99.90
28773;DHT22;15925;51.222;5.678;2022-10-20T08:26:46;13.60;99.90
28773;DHT22;15925;51.222;5.678;2022-10-20T08:29:12;13.60;99.90
28773;DHT22;15925;51.222;5.678;2022-10-20T08:31:38;13.60;99.90
28773;DHT22;15925;51.222;5.678;2022-10-20T08:34:04;13.70;99.90
28773;DHT22;15925;51.222;5.678;2022-10-20T08:36:30;13.70;99.90
28773;DHT22;15925;51.222;5.678;2022-10-20T08:38:58;13.70;99.90
28773;DHT22;15925;51.222;5.678;2022-10-20T08:41:29;13.70;99.90
28773;DHT22;15925;51.222;5.678;2022-10-20T08:43:56;13.80;99.90
28773;DHT22;15925;51.222;5.678;2022-10-20T08:46:28;13.80;99.90
28773;DHT22;15925;51.222;5.678;2022-10-20T08:48:54;13.80;99.90
28773;DHT22;15925;51.222;5.678;2022-10-20T08:51:23;13.90;99.90
28773;DHT22;15925;51.222;5.678;2022-10-20T08:53:52;13.90;99.90
28773;DHT22;15925;51.222;5.678;2022-10-20T08:56:22;13.90;99.90
28773;DHT22;15925;51.222;5.678;2022-10-20T08:58:49;13.90;99.90
28773;DHT22;15925;51.222;5.678;2022-10-20T09:01:24;14.00;99.90
28773;DHT22;15925;51.222;5.678;2022-10-20T09:03:57;14.00;99.90
28773;DHT22;15925;51.222;5.678;2022-10-20T09:06:23;14.10;99.90
28773;DHT22;15925;51.222;5.678;2022-10-20T09:08:49;14.10;99.90
28773;DHT22;15925;51.222;5.678;2022-10-20T09:11:20;14.10;99.90
28773;DHT22;15925;51.222;5.678;2022-10-20T09:13:46;14.10;99.90
28773;DHT22;15925;51.222;5.678;2022-10-20T09:18:40;14.20;99.90
28773;DHT22;15925;51.222;5.678;2022-10-20T09:21:17;14.20;99.90
28773;DHT22;15925;51.222;5.678;2022-10-20T09:23:51;14.20;99.90
28773;DHT22;15925;51.222;5.678;2022-10-20T09:26:27;14.30;99.90
28773;DHT22;15925;51.222;5.678;2022-10-20T09:29:08;14.30;99.90
28773;DHT22;15925;51.222;5.678;2022-10-20T09:31:37;14.30;99.90
28773;DHT22;15925;51.222;5.678;2022-10-20T09:34:32;14.40;99.90
28773;DHT22;15925;51.222;5.678;2022-10-20T09:42:18;14.40;99.90
28773;DHT22;15925;51.222;5.678;2022-10-20T09:47:16;14.50;99.90
28773;DHT22;15925;51.222;5.678;2022-10-20T09:49:43;14.50;99.90
28773;DHT22;15925;51.222;5.678;2022-10-20T09:52:17;14.50;99.90
28773;DHT22;15925;51.222;5.678;2022-10-20T09:54:47;14.50;99.90
28773;DHT22;15925;51.222;5.678;2022-10-20T09:57:19;14.60;99.90
28773;DHT22;15925;51.222;5.678;2022-10-20T09:59:47;14.50;99.90
28773;DHT22;15925;51.222;5.678;2022-10-20T10:04:45;14.60;99.90
28773;DHT22;15925;51.222;5.678;2022-10-20T10:07:27;14.70;99.90
28773;DHT22;15925;51.222;5.678;2022-10-20T10:12:22;14.80;99.90
28773;DHT22;15925;51.222;5.678;2022-10-20T10:17:40;14.80;99.90
28773;DHT22;15925;51.222;5.678;2022-10-20T10:20:28;14.80;99.90
28773;DHT22;15925;51.222;5.678;2022-10-20T10:23:22;14.70;99.90
28773;DHT22;15925;51.222;5.678;2022-10-20T10:25:50;14.80;99.90
28773;DHT22;15925;51.222;5.678;2022-10-20T10:28:35;14.80;99.90
28773;DHT22;15925;51.222;5.678;2022-10-20T10:31:22;14.80;99.90
28773;DHT22;15925;51.222;5.678;2022-10-20T10:36:40;14.80;99.90
28773;DHT22;15925;51.222;5.678;2022-10-20T10:39:10;14.90;99.90
28773;DHT22;15925;51.222;5.678;2022-10-20T10:42:05;14.90;99.90
28773;DHT22;15925;51.222;5.678;2022-10-20T10:45:16;14.90;99.90
28773;DHT22;15925;51.222;5.678;2022-10-20T10:48:05;15.00;99.90
28773;DHT22;15925;51.222;5.678;2022-10-20T11:15:34;15.10;99.90
28773;DHT22;15925;51.222;5.678;2022-10-20T11:24:32;14.90;99.90
28773;DHT22;15925;51.222;5.678;2022-10-20T11:27:15;15.00;99.90
28773;DHT22;15925;51.222;5.678;2022-10-20T11:29:51;15.00;99.90
28773;DHT22;15925;51.222;5.678;2022-10-20T11:32:33;14.90;99.90
28773;DHT22;15925;51.222;5.678;2022-10-20T11:35:12;14.90;99.90
28773;DHT22;15925;51.222;5.678;2022-10-20T11:41:42;15.00;99.90
28773;DHT22;15925;51.222;5.678;2022-10-20T11:44:23;15.00;99.90
28773;DHT22;15925;51.222;5.678;2022-10-20T11:47:07;15.10;99.90
28773;DHT22;15925;51.222;5.678;2022-10-20T11:49:37;15.10;99.90
28773;DHT22;15925;51.222;5.678;2022-10-20T11:52:58;15.10;99.90
28773;DHT22;15925;51.222;5.678;2022-10-20T11:55:30;15.20;99.90
28773;DHT22;15925;51.222;5.678;2022-10-20T12:04:55;15.30;99.90
28773;DHT22;15925;51.222;5.678;2022-10-20T12:10:52;15.40;99.90
28773;DHT22;15925;51.222;5.678;2022-10-20T12:22:04;15.80;99.90
28773;DHT22;15925;51.222;5.678;2022-10-20T12:24:36;15.80;99.90
28773;DHT22;15925;51.222;5.678;2022-10-20T12:34:47;15.90;99.90
28773;DHT22;15925;51.222;5.678;2022-10-20T12:39:49;15.90;99.90
28773;DHT22;15925;51.222;5.678;2022-10-20T12:42:29;16.00;99.90
28773;DHT22;15925;51.222;5.678;2022-10-20T12:45:02;16.10;99.90
28773;DHT22;15925;51.222;5.678;2022-10-20T12:47:31;16.10;99.90
28773;DHT22;15925;51.222;5.678;2022-10-20T12:50:05;16.20;99.90
28773;DHT22;15925;51.222;5.678;2022-10-20T12:52:35;16.30;99.90
28773;DHT22;15925;51.222;5.678;2022-10-20T12:55:16;16.40;99.90
28773;DHT22;15925;51.222;5.678;2022-10-20T12:57:44;16.40;99.90
28773;DHT22;15925;51.222;5.678;2022-10-20T13:02:58;16.60;99.90
28773;DHT22;15925;51.222;5.678;2022-10-20T13:05:41;16.70;99.90
28773;DHT22;15925;51.222;5.678;2022-10-20T13:10:43;16.80;99.90
28773;DHT22;15925;51.222;5.678;2022-10-20T13:20:54;17.10;99.90
28773;DHT22;15925;51.222;5.678;2022-10-20T13:23:40;17.10;99.90
28773;DHT22;15925;51.222;5.678;2022-10-20T13:26:28;17.00;99.90
28773;DHT22;15925;51.222;5.678;2022-10-20T13:28:57;17.10;99.90
28773;DHT22;15925;51.222;5.678;2022-10-20T13:31:46;17.10;99.90
28773;DHT22;15925;51.222;5.678;2022-10-20T13:34:36;17.10;99.90
28773;DHT22;15925;51.222;5.678;2022-10-20T13:43:22;17.30;99.90
28773;DHT22;15925;51.222;5.678;2022-10-20T13:45:59;17.30;99.90
28773;DHT22;15925;51.222;5.678;2022-10-20T13:48:44;17.40;99.90
28773;DHT22;15925;51.222;5.678;2022-10-20T13:51:24;17.50;99.90
28773;DHT22;15925;51.222;5.678;2022-10-20T13:53:54;17.50;99.90
28773;DHT22;15925;51.222;5.678;2022-10-20T13:56:34;17.60;99.90
28773;DHT22;15925;51.222;5.678;2022-10-20T14:01:29;17.70;99.90
28773;DHT22;15925;51.222;5.678;2022-10-20T14:03:55;17.70;99.90
28773;DHT22;15925;51.222;5.678;2022-10-20T14:06:33;17.80;99.90
28773;DHT22;15925;51.222;5.678;2022-10-20T14:09:16;17.90;99.90
28773;DHT22;15925;51.222;5.678;2022-10-20T14:11:44;18.00;99.90
28773;DHT22;15925;51.222;5.678;2022-10-20T14:14:16;18.00;99.90
28773;DHT22;15925;51.222;5.678;2022-10-20T14:16:51;18.00;99.90
28773;DHT22;15925;51.222;5.678;2022-10-20T14:19:20;18.10;99.90
28773;DHT22;15925;51.222;5.678;2022-10-20T14:21:49;18.20;99.90
28773;DHT22;15925;51.222;5.678;2022-10-20T14:24:31;18.20;99.90
28773;DHT22;15925;51.222;5.678;2022-10-20T14:27:02;18.20;99.90
28773;DHT22;15925;51.222;5.678;2022-10-20T14:29:31;18.30;99.90
28773;DHT22;15925;51.222;5.678;2022-10-20T14:31:58;18.30;99.90
28773;DHT22;15925;51.222;5.678;2022-10-20T14:34:26;18.40;99.90
28773;DHT22;15925;51.222;5.678;2022-10-20T14:36:53;18.40;99.90
28773;DHT22;15925;51.222;5.678;2022-10-20T14:39:31;18.50;99.90
28773;DHT22;15925;51.222;5.678;2022-10-20T14:42:00;18.50;99.90
28773;DHT22;15925;51.222;5.678;2022-10-20T14:44:27;18.50;99.90
28773;DHT22;15925;51.222;5.678;2022-10-20T14:46:55;18.60;99.90
28773;DHT22;15925;51.222;5.678;2022-10-20T14:49:27;18.60;99.90
28773;DHT22;15925;51.222;5.678;2022-10-20T14:52:23;18.60;99.90
28773;DHT22;15925;51.222;5.678;2022-10-20T14:54:54;18.70;99.90
28773;DHT22;15925;51.222;5.678;2022-10-20T14:57:39;18.70;99.90
28773;DHT22;15925;51.222;5.678;2022-10-20T15:00:34;18.70;99.90
28773;DHT22;15925;51.222;5.678;2022-10-20T15:03:03;18.70;99.90
28773;DHT22;15925;51.222;5.678;2022-10-20T15:08:25;18.80;99.90
28773;DHT22;15925;51.222;5.678;2022-10-20T15:10:52;18.80;99.90
28773;DHT22;15925;51.222;5.678;2022-10-20T15:13:28;18.80;99.90
28773;DHT22;15925;51.222;5.678;2022-10-20T15:15:56;18.80;99.90
28773;DHT22;15925;51.222;5.678;2022-10-20T15:18:22;18.80;99.90
28773;DHT22;15925;51.222;5.678;2022-10-20T15:20:50;18.80;99.90
28773;DHT22;15925;51.222;5.678;2022-10-20T15:23:22;18.80;99.90
28773;DHT22;15925;51.222;5.678;2022-10-20T15:26:03;18.80;99.90
28773;DHT22;15925;51.222;5.678;2022-10-20T15:28:43;18.80;99.90
28773;DHT22;15925;51.222;5.678;2022-10-20T15:33:39;18.80;99.90
28773;DHT22;15925;51.222;5.678;2022-10-20T15:36:13;18.80;99.90
28773;DHT22;15925;51.222;5.678;2022-10-20T15:38:41;18.80;99.90
28773;DHT22;15925;51.222;5.678;2022-10-20T15:41:16;18.70;99.90
28773;DHT22;15925;51.222;5.678;2022-10-20T15:43:42;18.70;99.90
28773;DHT22;15925;51.222;5.678;2022-10-20T15:46:10;18.70;99.90
28773;DHT22;15925;51.222;5.678;2022-10-20T15:48:36;18.70;99.90
28773;DHT22;15925;51.222;5.678;2022-10-20T15:51:02;18.70;99.90
28773;DHT22;15925;51.222;5.678;2022-10-20T15:53:28;18.70;99.90
28773;DHT22;15925;51.222;5.678;2022-10-20T15:55:54;18.50;99.90
28773;DHT22;15925;51.222;5.678;2022-10-20T15:58:20;18.60;99.90
28773;DHT22;15925;51.222;5.678;2022-10-20T16:00:46;18.60;99.90
28773;DHT22;15925;51.222;5.678;2022-10-20T16:03:15;18.60;99.90
28773;DHT22;15925;51.222;5.678;2022-10-20T16:05:42;18.50;99.90
28773;DHT22;15925;51.222;5.678;2022-10-20T16:08:07;18.50;99.90
28773;DHT22;15925;51.222;5.678;2022-10-20T16:10:33;18.50;99.90
28773;DHT22;15925;51.222;5.678;2022-10-20T16:12:59;18.50;99.90
28773;DHT22;15925;51.222;5.678;2022-10-20T16:15:25;18.40;99.90
28773;DHT22;15925;51.222;5.678;2022-10-20T16:17:51;18.40;99.90
28773;DHT22;15925;51.222;5.678;2022-10-20T16:20:17;18.40;99.90
28773;DHT22;15925;51.222;5.678;2022-10-20T16:22:43;18.40;99.90
28773;DHT22;15925;51.222;5.678;2022-10-20T16:25:09;18.30;99.90
28773;DHT22;15925;51.222;5.678;2022-10-20T16:27:34;18.20;99.90
28773;DHT22;15925;51.222;5.678;2022-10-20T16:30:00;18.20;99.90
28773;DHT22;15925;51.222;5.678;2022-10-20T16:32:28;18.10;99.90
28773;DHT22;15925;51.222;5.678;2022-10-20T16:34:53;18.00;99.90
28773;DHT22;15925;51.222;5.678;2022-10-20T16:37:20;18.00;99.90
28773;DHT22;15925;51.222;5.678;2022-10-20T16:39:46;17.90;99.90
28773;DHT22;15925;51.222;5.678;2022-10-20T16:42:11;18.00;99.90
28773;DHT22;15925;51.222;5.678;2022-10-20T16:44:37;17.90;99.90
28773;DHT22;15925;51.222;5.678;2022-10-20T16:47:03;17.90;99.90
28773;DHT22;15925;51.222;5.678;2022-10-20T16:49:29;17.80;99.90
28773;DHT22;15925;51.222;5.678;2022-10-20T16:51:54;17.80;99.90
28773;DHT22;15925;51.222;5.678;2022-10-20T16:54:20;17.80;99.90
28773;DHT22;15925;51.222;5.678;2022-10-20T16:56:46;17.70;99.90
28773;DHT22;15925;51.222;5.678;2022-10-20T16:59:13;17.60;99.90
28773;DHT22;15925;51.222;5.678;2022-10-20T17:01:38;17.50;99.90
28773;DHT22;15925;51.222;5.678;2022-10-20T17:04:04;17.60;99.90
28773;DHT22;15925;51.222;5.678;2022-10-20T17:06:30;17.60;99.90
28773;DHT22;15925;51.222;5.678;2022-10-20T17:08:59;17.50;99.90
28773;DHT22;15925;51.222;5.678;2022-10-20T17:11:28;17.50;99.90
28773;DHT22;15925;51.222;5.678;2022-10-20T17:13:55;17.40;99.90
28773;DHT22;15925;51.222;5.678;2022-10-20T17:16:23;17.40;99.90
28773;DHT22;15925;51.222;5.678;2022-10-20T17:18:51;17.40;99.90
28773;DHT22;15925;51.222;5.678;2022-10-20T17:21:17;17.30;99.90
28773;DHT22;15925;51.222;5.678;2022-10-20T17:23:43;17.30;99.90
28773;DHT22;15925;51.222;5.678;2022-10-20T17:26:15;17.30;99.90
28773;DHT22;15925;51.222;5.678;2022-10-20T17:28:42;17.20;99.90
28773;DHT22;15925;51.222;5.678;2022-10-20T17:31:11;17.20;99.90
28773;DHT22;15925;51.222;5.678;2022-10-20T17:33:38;17.20;99.90
28773;DHT22;15925;51.222;5.678;2022-10-20T17:36:04;17.20;99.90
28773;DHT22;15925;51.222;5.678;2022-10-20T17:38:30;17.10;99.90
28773;DHT22;15925;51.222;5.678;2022-10-20T17:41:07;17.10;99.90
28773;DHT22;15925;51.222;5.678;2022-10-20T17:43:34;17.10;99.90
28773;DHT22;15925;51.222;5.678;2022-10-20T17:46:11;17.00;99.90
28773;DHT22;15925;51.222;5.678;2022-10-20T17:48:38;17.00;99.90
28773;DHT22;15925;51.222;5.678;2022-10-20T17:51:16;17.00;99.90
28773;DHT22;15925;51.222;5.678;2022-10-20T17:53:45;17.00;99.90
28773;DHT22;15925;51.222;5.678;2022-10-20T17:56:21;16.90;99.90
28773;DHT22;15925;51.222;5.678;2022-10-20T17:58:49;16.90;99.90